Time;durP1;ratioP1;P1;durP2;ratioP2;P2;SDS_P1;SDS_P2;PMS_P1;PMS_P2;Temp;Humidity;BMP_temperature;BMP_pressure;BME280_temperature;BME280_humidity;BME280_pressure;Samples;Min_cycle;Max_cycle;Signal;HPM_P1;HPM_P2
2021/05/19 00:00:33;;;;;;;5.45;4.90;;;;;;;9.93;75.35;98930.09;3589142;40;20049;-66
2021/05/19 00:03:01;;;;;;;7.32;4.57;;;;;;;9.87;75.36;98930.81;3589698;40;20307;-66
2021/05/19 00:05:28;;;;;;;7.63;5.18;;;;;;;9.77;75.65;98930.31;3580523;40;20037;-66
2021/05/19 00:07:56;;;;;;;6.65;5.35;;;;;;;9.77;75.91;98926.84;3580212;40;20537;-66
2021/05/19 00:10:23;;;;;;;5.10;4.60;;;;;;;9.74;75.86;98935.13;3590070;40;20059;-66
2021/05/19 00:12:50;;;;;;;5.20;4.70;;;;;;;9.70;75.74;98937.31;3589900;40;20305;-66
2021/05/19 00:15:18;;;;;;;5.45;4.90;;;;;;;9.59;75.95;98935.97;3581099;40;20119;-66
2021/05/19 00:17:46;;;;;;;6.22;4.85;;;;;;;9.56;75.75;98933.69;3580320;40;20041;-66
2021/05/19 00:20:16;;;;;;;5.68;4.30;;;;;;;9.54;75.70;98926.94;3580748;40;20052;-66
2021/05/19 00:22:43;;;;;;;5.90;4.70;;;;;;;9.54;75.70;98919.03;3589782;40;20036;-66
2021/05/19 00:25:12;;;;;;;5.82;4.30;;;;;;;9.54;75.21;98919.84;3580695;40;20048;-65
2021/05/19 00:27:39;;;;;;;5.55;4.55;;;;;;;9.50;75.12;98915.94;3580349;40;20313;-65
2021/05/19 00:30:08;;;;;;;7.13;4.43;;;;;;;9.45;74.98;98926.22;3580481;40;20122;-66
2021/05/19 00:32:35;;;;;;;5.47;4.88;;;;;;;9.35;75.18;98926.50;3589765;40;20033;-66
2021/05/19 00:35:03;;;;;;;5.07;4.63;;;;;;;9.25;75.15;98923.31;3589727;40;20415;-66
2021/05/19 00:37:31;;;;;;;5.80;4.85;;;;;;;9.21;75.63;98927.31;3589395;40;20044;-66
2021/05/19 00:39:58;;;;;;;6.80;4.90;;;;;;;9.15;75.50;98934.13;3589539;40;20055;-66
2021/05/19 00:42:25;;;;;;;6.93;4.63;;;;;;;9.14;75.36;98924.59;3589878;40;20056;-65
2021/05/19 00:44:53;;;;;;;8.05;5.13;;;;;;;9.18;75.64;98919.75;3580205;40;20044;-66
2021/05/19 00:47:31;;;;;;;5.60;4.88;;;;;;;9.13;75.76;98928.22;3580096;40;20414;-66
2021/05/19 00:49:59;;;;;;;6.80;4.93;;;;;;;9.04;76.00;98923.19;3580405;40;20055;-66
2021/05/19 00:52:26;;;;;;;7.40;5.30;;;;;;;9.08;76.12;98920.03;3580499;40;20048;-66
2021/05/19 00:54:54;;;;;;;4.60;4.20;;;;;;;9.11;75.82;98922.31;3589958;40;20406;-66
2021/05/19 00:57:23;;;;;;;7.00;5.38;;;;;;;9.11;75.99;98922.31;3580610;40;20044;-67
2021/05/19 00:59:51;;;;;;;5.18;4.65;;;;;;;9.08;76.09;98916.56;3589775;40;20056;-66
2021/05/19 01:02:25;;;;;;;9.82;4.40;;;;;;;8.99;75.69;98925.56;3580580;40;20438;-65
2021/05/19 01:04:52;;;;;;;5.30;4.63;;;;;;;8.98;75.94;98926.53;3580539;40;20420;-65
2021/05/19 01:09:34;;;;;;;5.10;4.65;;;;;;;8.96;75.91;98925.91;3588933;40;20051;-65
2021/05/19 01:10:31;;;;;;;6.03;5.43;;;;;;;8.89;75.78;98921.34;3579902;40;20428;-65
2021/05/19 01:12:58;;;;;;;7.22;4.72;;;;;;;8.84;76.09;98925.53;3589719;40;20045;-65
2021/05/19 01:15:25;;;;;;;5.65;5.13;;;;;;;8.81;76.06;98926.69;3589427;40;20048;-65
2021/05/19 01:17:53;;;;;;;7.32;4.75;;;;;;;8.70;76.18;98923.69;3580053;40;20041;-66
2021/05/19 01:20:21;;;;;;;6.65;5.00;;;;;;;8.64;76.50;98922.56;3580267;40;20051;-65
2021/05/19 01:22:49;;;;;;;7.13;5.32;;;;;;;8.56;76.39;98930.53;3589525;40;20040;-65
2021/05/19 01:25:17;;;;;;;6.45;5.63;;;;;;;8.50;76.44;98934.69;3580086;40;20055;-64
2021/05/19 01:27:51;;;;;;;5.55;4.90;;;;;;;8.51;76.85;98923.16;3579875;40;20051;-64
2021/05/19 01:30:19;;;;;;;;;;;;;;;8.55;76.49;98931.53;3590262;40;20044;-64
2021/05/19 01:32:46;;;;;;;6.32;5.30;;;;;;;8.53;76.13;98930.88;3589338;40;19928;-64
2021/05/19 01:35:15;;;;;;;5.88;5.28;;;;;;;8.47;76.13;98928.97;3580158;40;20059;-64
2021/05/19 01:37:44;;;;;;;5.70;5.18;;;;;;;8.46;75.99;98935.22;3579913;40;20049;-65
2021/05/19 01:40:14;;;;;;;6.35;5.20;;;;;;;8.41;75.95;98927.84;3580098;40;20061;-65
2021/05/19 01:42:41;;;;;;;5.82;5.22;;;;;;;8.41;76.06;98928.66;3589529;40;20414;-64
2021/05/19 01:45:23;;;;;;;5.80;5.20;;;;;;;8.39;75.89;98928.00;3580010;40;20056;-65
2021/05/19 01:47:52;;;;;;;7.82;5.63;;;;;;;8.39;76.25;98938.53;3589204;40;20359;-65
2021/05/19 01:50:22;;;;;;;6.57;5.85;;;;;;;8.27;76.25;98936.47;3589405;40;20061;-65
2021/05/19 01:52:52;;;;;;;6.82;5.03;;;;;;;8.18;76.36;98939.16;3579938;40;20044;-64
2021/05/19 01:55:23;;;;;;;6.20;5.60;;;;;;;8.21;76.29;98938.00;3589280;40;20133;-64
2021/05/19 01:57:52;;;;;;;5.68;5.15;;;;;;;8.11;76.20;98937.38;3580102;40;20048;-64
2021/05/19 02:00:23;;;;;;;9.25;5.70;;;;;;;8.13;76.39;98935.41;3580293;40;20048;-64
2021/05/19 02:02:55;;;;;;;6.22;5.43;;;;;;;8.10;76.32;98938.38;3589310;40;20483;-64
2021/05/19 02:05:26;;;;;;;6.65;5.60;;;;;;;8.04;76.41;98944.31;3589336;40;20048;-64
2021/05/19 02:07:54;;;;;;;6.60;5.53;;;;;;;7.94;76.60;98940.09;3579913;40;20352;-63
2021/05/19 02:10:26;;;;;;;5.70;5.10;;;;;;;7.97;76.55;98946.03;3580024;40;20044;-64
2021/05/19 02:12:58;;;;;;;6.10;5.28;;;;;;;7.93;76.68;98941.09;3580010;40;20112;-65
2021/05/19 02:15:26;;;;;;;7.07;5.43;;;;;;;7.92;76.66;98946.53;3579923;40;20060;-65
2021/05/19 02:17:54;;;;;;;8.35;5.00;;;;;;;7.96;76.74;98955.75;3588832;40;20052;-65
2021/05/19 02:20:23;;;;;;;11.15;5.20;;;;;;;7.92;76.53;98957.06;3580170;40;20117;-65
2021/05/19 02:22:51;;;;;;;7.25;5.63;;;;;;;7.86;76.77;98955.13;3579428;40;20071;-65
2021/05/19 02:25:21;;;;;;;6.80;6.10;;;;;;;7.83;76.56;98963.34;3579697;40;20052;-65
2021/05/19 02:27:51;;;;;;;6.45;5.70;;;;;;;7.80;76.62;98961.88;3588898;40;20088;-65
2021/05/19 02:30:23;;;;;;;7.00;5.75;;;;;;;7.86;76.61;98955.94;3579859;40;20125;-65
2021/05/19 02:32:50;;;;;;;5.78;5.28;;;;;;;7.91;76.73;98953.59;3615652;22;20045;-64
2021/05/19 02:35:20;;;;;;;6.03;5.38;;;;;;;7.92;76.50;98946.53;3580445;40;20048;-65
2021/05/19 02:37:57;;;;;;;8.43;6.13;;;;;;;7.92;76.34;98941.28;3581462;40;20320;-64
2021/05/19 02:40:27;;;;;;;6.65;5.97;;;;;;;7.95;76.13;98947.00;3580547;40;20052;-64
2021/05/19 02:42:55;;;;;;;7.10;5.80;;;;;;;7.86;76.29;98948.03;3580966;40;20037;-64
2021/05/19 02:45:27;;;;;;;6.88;6.03;;;;;;;7.80;76.44;98950.53;3581928;40;20044;-64
2021/05/19 02:47:55;;;;;;;15.10;6.28;;;;;;;7.67;76.59;98951.06;3590811;40;20097;-64
2021/05/19 02:50:22;;;;;;;6.95;5.75;;;;;;;7.55;76.75;98945.38;3589410;40;20129;-65
2021/05/19 02:52:49;;;;;;;14.30;6.80;;;;;;;7.52;77.02;98945.72;3589007;40;20067;-64
2021/05/19 02:55:17;;;;;;;7.28;6.43;;;;;;;7.47;77.13;98944.56;3589895;40;20028;-64
2021/05/19 02:57:44;;;;;;;7.20;6.00;;;;;;;7.59;77.04;98945.84;3589848;40;20052;-65
2021/05/19 03:00:14;;;;;;;9.07;6.00;;;;;;;7.67;77.08;98948.44;3581749;40;20036;-64
2021/05/19 03:02:41;;;;;;;6.68;5.85;;;;;;;7.75;76.86;98952.84;3581464;40;20028;-65
2021/05/19 03:05:09;;;;;;;8.15;6.75;;;;;;;7.77;76.58;98954.34;3589886;40;20052;-65
2021/05/19 03:07:36;;;;;;;10.05;6.25;;;;;;;7.70;76.25;98950.72;3590669;40;20048;-65
2021/05/19 03:10:05;;;;;;;6.80;5.97;;;;;;;7.68;76.23;98960.63;3591675;40;20393;-64
2021/05/19 03:12:32;;;;;;;5.80;5.30;;;;;;;7.63;76.44;98960.28;3581843;40;20044;-64
2021/05/19 03:15:00;;;;;;;6.45;5.40;;;;;;;7.59;76.23;98970.34;3591059;40;20052;-64
2021/05/19 03:17:28;;;;;;;8.05;5.93;;;;;;;7.50;76.48;98967.91;3581210;40;20044;-64
2021/05/19 03:19:56;;;;;;;7.32;6.25;;;;;;;7.47;76.62;98973.50;3590889;40;20054;-65
2021/05/19 03:22:24;;;;;;;8.07;6.00;;;;;;;7.51;76.95;98985.31;3581739;40;20403;-64
2021/05/19 03:24:51;;;;;;;7.20;6.43;;;;;;;7.50;77.01;98973.97;3591305;40;20064;-64
2021/05/19 03:27:18;;;;;;;8.10;7.03;;;;;;;7.54;76.87;98977.09;3590514;40;20134;-64
2021/05/19 03:29:45;;;;;;;8.18;6.60;;;;;;;7.60;76.94;98977.25;3590509;40;20410;-64
2021/05/19 03:32:13;;;;;;;8.38;7.18;;;;;;;7.64;76.86;98972.47;3590483;40;20110;-65
2021/05/19 03:34:41;;;;;;;6.80;6.05;;;;;;;7.71;76.84;98983.94;3581148;40;20037;-65
2021/05/19 03:37:08;;;;;;;7.50;6.60;;;;;;;7.75;76.61;98982.63;3588735;40;20052;-65
2021/05/19 03:39:36;;;;;;;8.40;6.88;;;;;;;7.76;76.91;98983.47;3589316;40;20048;-64
2021/05/19 03:42:03;;;;;;;8.32;7.05;;;;;;;7.80;76.90;98982.94;3579694;40;20052;-65
2021/05/19 03:44:31;;;;;;;9.43;6.95;;;;;;;7.84;76.88;98986.88;3589032;40;20067;-65
2021/05/19 03:46:58;;;;;;;11.18;7.80;;;;;;;7.89;76.88;98989.81;3588607;40;20059;-63
2021/05/19 03:49:27;;;;;;;11.48;9.00;;;;;;;7.92;76.64;98988.66;3590058;40;20405;-65
2021/05/19 03:51:55;;;;;;;11.40;9.20;;;;;;;7.87;76.72;98989.16;3589975;40;20048;-64
2021/05/19 03:54:23;;;;;;;9.80;8.13;;;;;;;7.78;76.70;98997.25;3590172;40;20048;-64
2021/05/19 03:56:50;;;;;;;13.15;8.50;;;;;;;7.76;77.01;98999.25;3590329;40;20056;-65
2021/05/19 03:59:18;;;;;;;12.77;9.05;;;;;;;7.76;77.31;99001.88;3590708;40;20329;-64
2021/05/19 04:01:46;;;;;;;11.82;8.50;;;;;;;7.82;77.17;99006.44;3592812;40;20325;-64
2021/05/19 04:07:14;;;;;;;10.73;8.02;;;;;;;7.79;77.27;99009.41;3593166;40;20059;-65
2021/05/19 04:09:42;;;;;;;11.10;7.88;;;;;;;7.81;77.23;99010.06;3593748;40;20040;-67
2021/05/19 04:12:09;;;;;;;14.63;8.35;;;;;;;7.83;77.44;99010.72;3594323;40;20052;-66
2021/05/19 04:14:37;;;;;;;11.20;8.20;;;;;;;7.92;77.34;99015.00;3592696;40;20052;-67
2021/05/19 04:17:04;;;;;;;9.93;8.10;;;;;;;8.03;77.23;99013.78;3589976;40;20048;-65
2021/05/19 04:19:33;;;;;;;10.60;8.18;;;;;;;8.09;77.00;99010.47;3592394;40;20044;-65
2021/05/19 04:22:00;;;;;;;10.18;8.25;;;;;;;8.13;76.72;99012.59;3590526;40;20037;-65
2021/05/19 04:24:28;;;;;;;11.00;9.02;;;;;;;8.19;76.88;99013.69;3590303;40;20048;-65
2021/05/19 04:26:56;;;;;;;9.38;7.90;;;;;;;8.21;76.77;99017.00;3590392;40;20129;-64
2021/05/19 04:29:23;;;;;;;11.07;8.15;;;;;;;8.22;76.70;99018.63;3589727;40;20047;-65
2021/05/19 04:31:50;;;;;;;9.93;8.70;;;;;;;8.27;76.51;99012.84;3589858;40;20336;-65
2021/05/19 04:34:18;;;;;;;11.93;8.98;;;;;;;8.23;76.45;99012.38;3589839;40;20583;-65
2021/05/19 04:36:45;;;;;;;10.25;8.35;;;;;;;8.29;76.61;99009.06;3580783;40;20037;-65
2021/05/19 04:39:12;;;;;;;12.60;9.15;;;;;;;8.38;76.73;99013.31;3589920;40;20048;-66
2021/05/19 04:41:40;;;;;;;12.38;9.80;;;;;;;8.46;76.50;99009.00;3589980;40;20584;-67
2021/05/19 04:44:08;;;;;;;14.30;10.95;;;;;;;8.52;76.53;99013.56;3589901;40;20511;-65
2021/05/19 04:46:37;;;;;;;14.88;11.52;;;;;;;8.55;76.46;99011.41;3590365;40;20052;-65
2021/05/19 04:49:04;;;;;;;19.60;11.82;;;;;;;8.60;76.68;99016.94;3590745;40;20060;-65
2021/05/19 04:51:32;;;;;;;16.90;11.02;;;;;;;8.62;76.86;99022.88;3582162;40;20045;-65
2021/05/19 04:53:59;;;;;;;17.30;12.45;;;;;;;8.68;76.57;99014.25;3591978;40;20041;-65
2021/05/19 04:56:26;;;;;;;18.33;11.75;;;;;;;8.73;76.78;99024.28;3591885;40;20333;-65
2021/05/19 04:58:54;;;;;;;19.33;13.02;;;;;;;8.78;77.09;99032.50;3591549;40;20310;-66
2021/05/19 05:01:21;;;;;;;23.88;14.95;;;;;;;8.86;76.69;99031.63;3591912;40;20052;-66
2021/05/19 05:03:49;;;;;;;22.20;14.35;;;;;;;8.87;76.81;99025.34;3590200;40;20048;-65
2021/05/19 05:06:16;;;;;;;19.48;13.38;;;;;;;8.96;76.99;99029.56;3580718;40;20051;-66
2021/05/19 05:08:43;;;;;;;20.35;12.95;;;;;;;9.04;76.83;99028.69;3580211;40;20060;-65
2021/05/19 05:11:11;;;;;;;22.75;15.65;;;;;;;9.13;76.44;99033.69;3591060;40;20053;-66
2021/05/19 05:13:38;;;;;;;23.80;14.63;;;;;;;9.21;76.79;99032.81;3593291;40;20103;-65
2021/05/19 05:16:06;;;;;;;18.98;13.40;;;;;;;9.29;76.56;99038.03;3594284;40;20044;-66
2021/05/19 05:18:35;;;;;;;19.02;13.85;;;;;;;9.31;76.69;99035.22;3584788;40;20282;-65
2021/05/19 05:21:03;;;;;;;21.02;14.43;;;;;;;9.29;76.36;99043.31;3591242;40;20145;-65
2021/05/19 05:23:31;;;;;;;27.75;14.57;;;;;;;9.31;76.12;99032.59;3590337;40;20084;-65
2021/05/19 05:25:59;;;;;;;26.55;14.20;;;;;;;9.31;76.20;99041.31;3590141;40;20044;-65
2021/05/19 05:28:26;;;;;;;20.77;14.05;;;;;;;9.28;76.51;99051.41;3589454;40;20051;-65
2021/05/19 05:30:55;;;;;;;22.75;14.50;;;;;;;9.31;76.22;99051.06;3590618;40;20059;-65
2021/05/19 05:33:23;;;;;;;24.15;14.65;;;;;;;9.28;76.12;99052.22;3590969;40;20036;-65
2021/05/19 05:35:51;;;;;;;28.58;15.35;;;;;;;9.23;76.41;99045.84;3581633;40;20051;-65
2021/05/19 05:38:18;;;;;;;26.67;15.43;;;;;;;9.29;76.36;99053.03;3590817;40;20047;-65
2021/05/19 05:40:46;;;;;;;29.27;17.77;;;;;;;9.31;76.24;99057.16;3590823;40;20063;-65
2021/05/19 05:43:13;;;;;;;26.10;15.25;;;;;;;9.30;76.39;99052.84;3590670;40;20040;-65
2021/05/19 05:45:40;;;;;;;22.90;15.55;;;;;;;9.25;76.33;99051.75;3590739;40;20029;-64
2021/05/19 05:48:08;;;;;;;28.83;16.88;;;;;;;9.29;76.85;99050.41;3590374;40;20092;-65
2021/05/19 05:50:36;;;;;;;30.13;17.27;;;;;;;9.36;76.48;99059.25;3591305;40;20041;-66
2021/05/19 05:53:03;;;;;;;26.10;16.60;;;;;;;9.38;76.22;99050.13;3591094;40;20052;-66
2021/05/19 05:55:31;;;;;;;34.03;19.13;;;;;;;9.39;76.61;99062.34;3591227;40;20049;-65
2021/05/19 05:57:58;;;;;;;29.38;18.50;;;;;;;9.35;76.69;99055.78;3590201;40;20059;-65
2021/05/19 06:00:27;;;;;;;28.42;17.38;;;;;;;9.43;76.65;99049.63;3590953;40;20048;-66
2021/05/19 06:02:54;;;;;;;23.90;17.13;;;;;;;9.51;76.21;99056.63;3590803;40;20037;-65
2021/05/19 06:05:23;;;;;;;28.05;18.67;;;;;;;9.53;76.34;99062.56;3581515;40;20051;-65
2021/05/19 06:07:52;;;;;;;28.33;18.08;;;;;;;9.65;76.55;99059.28;3581490;40;20052;-66
2021/05/19 06:10:20;;;;;;;24.98;17.13;;;;;;;9.75;76.10;99061.66;3590320;40;20048;-66
2021/05/19 06:12:48;;;;;;;23.90;18.20;;;;;;;9.79;76.14;99065.56;3590027;40;20040;-65
2021/05/19 06:15:17;;;;;;;26.70;17.05;;;;;;;9.75;75.90;99060.84;3589108;40;20052;-66
2021/05/19 06:17:45;;;;;;;26.05;16.63;;;;;;;9.64;76.23;99067.41;3589235;40;20052;-66
2021/05/19 06:20:14;;;;;;;26.95;16.17;;;;;;;9.68;76.52;99064.22;3589297;40;20398;-65
2021/05/19 06:22:42;;;;;;;25.20;16.73;;;;;;;9.78;76.38;99078.97;3589216;40;20110;-65
2021/05/19 06:25:12;;;;;;;27.10;17.00;;;;;;;9.74;76.37;99072.41;3580057;40;20129;-65
2021/05/19 06:27:40;;;;;;;29.60;17.10;;;;;;;9.70;76.24;99077.22;3588776;40;20088;-65
2021/05/19 06:30:09;;;;;;;23.58;16.35;;;;;;;9.74;76.47;99080.34;3589204;40;20074;-66
2021/05/19 06:32:37;;;;;;;25.08;18.08;;;;;;;9.78;76.37;99078.97;3589050;40;20036;-65
2021/05/19 06:35:06;;;;;;;21.85;15.75;;;;;;;9.85;76.22;99085.19;3589279;40;20048;-65
2021/05/19 06:37:35;;;;;;;29.05;17.45;;;;;;;9.89;76.06;99078.53;3579671;40;20055;-67
2021/05/19 06:40:04;;;;;;;23.77;17.08;;;;;;;10.04;76.17;99083.81;3579874;40;20064;-66
2021/05/19 06:42:33;;;;;;;22.63;16.13;;;;;;;10.08;75.83;99085.94;3579729;40;20036;-65
2021/05/19 06:45:01;;;;;;;19.73;14.85;;;;;;;10.07;75.61;99084.25;3579635;40;20118;-65
2021/05/19 06:47:32;;;;;;;22.83;16.40;;;;;;;10.12;75.21;99084.56;3588830;40;20044;-65
2021/05/19 06:50:00;;;;;;;24.52;15.40;;;;;;;10.25;75.47;99078.66;3579386;40;20063;-65
2021/05/19 06:52:27;;;;;;;22.55;15.55;;;;;;;10.46;74.80;99079.72;3588905;40;20075;-66
2021/05/19 06:54:55;;;;;;;19.25;14.70;;;;;;;10.47;73.92;99086.66;3588723;40;20088;-66
2021/05/19 06:57:22;;;;;;;16.30;13.30;;;;;;;10.25;73.23;99086.59;3588928;40;20051;-64
2021/05/19 06:59:50;;;;;;;16.73;12.73;;;;;;;10.24;73.32;99081.44;3589074;40;20060;-65
2021/05/19 07:02:19;;;;;;;15.75;12.45;;;;;;;10.16;73.73;99085.00;3588895;40;20051;-65
2021/05/19 07:04:47;;;;;;;15.93;12.65;;;;;;;10.26;74.02;99093.50;3579508;40;20336;-65
2021/05/19 07:07:15;;;;;;;16.13;11.98;;;;;;;10.33;73.49;99086.50;3588746;40;20048;-65
2021/05/19 07:09:43;;;;;;;17.25;12.63;;;;;;;10.35;73.28;99088.94;3588461;40;20405;-65
2021/05/19 07:12:12;;;;;;;16.05;12.10;;;;;;;10.37;73.20;99095.69;3589586;40;20060;-65
2021/05/19 07:14:46;;;;;;;16.27;12.20;;;;;;;10.49;73.28;99101.31;3588818;40;20342;-65
2021/05/19 07:17:15;;;;;;;18.77;13.25;;;;;;;10.55;73.18;99105.03;3588900;40;20381;-65
2021/05/19 07:19:42;;;;;;;17.45;12.48;;;;;;;10.55;72.87;99103.22;3588618;40;20051;-65
2021/05/19 07:22:10;;;;;;;21.13;12.65;;;;;;;10.48;73.18;99112.06;3589051;40;20052;-65
2021/05/19 07:24:37;;;;;;;19.98;12.18;;;;;;;10.49;73.18;99109.25;3588757;40;20041;-65
2021/05/19 07:27:05;;;;;;;16.55;12.32;;;;;;;10.55;72.41;99107.69;3588522;40;20067;-65
2021/05/19 07:29:32;;;;;;;18.77;13.48;;;;;;;10.72;72.37;99109.09;3589036;40;20321;-65
2021/05/19 07:32:00;;;;;;;16.23;11.32;;;;;;;11.03;71.91;99105.38;3588561;40;20045;-66
2021/05/19 07:34:29;;;;;;;18.00;11.70;;;;;;;11.26;71.21;99100.69;3589042;40;20041;-64
2021/05/19 07:36:56;;;;;;;14.30;10.23;;;;;;;11.34;70.20;99102.41;3588410;40;20054;-65
2021/05/19 07:39:23;;;;;;;14.65;10.23;;;;;;;11.46;70.01;99100.06;3588847;40;20390;-64
2021/05/19 07:41:58;;;;;;;11.20;9.25;;;;;;;11.46;69.90;99105.38;3588757;40;20040;-65
2021/05/19 07:44:26;;;;;;;10.88;8.60;;;;;;;11.54;69.17;99106.03;3579232;40;20081;-65
2021/05/19 07:46:53;;;;;;;8.98;7.57;;;;;;;11.64;68.42;99111.84;3588597;40;20072;-65
2021/05/19 07:49:19;;;;;;;11.32;8.98;;;;;;;11.66;67.92;99106.34;3588500;40;20073;-65
2021/05/19 07:51:47;;;;;;;10.73;8.18;;;;;;;11.59;66.58;99108.97;3588585;40;20059;-65
2021/05/19 07:54:17;;;;;;;9.45;7.43;;;;;;;11.56;66.86;99098.75;3588499;40;20132;-65
2021/05/19 07:56:51;;;;;;;10.63;8.70;;;;;;;11.84;67.42;99096.13;3589003;40;20412;-65
2021/05/19 07:59:19;;;;;;;12.95;8.02;;;;;;;11.96;66.03;99107.00;3588691;40;20049;-65
2021/05/19 08:04:36;;;;;;;8.52;6.60;;;;;;;12.04;65.49;99095.41;3576505;40;20048;-65
2021/05/19 08:07:05;;;;;;;11.52;8.23;;;;;;;12.15;65.58;99092.22;3588540;40;20052;-64
2021/05/19 08:09:31;;;;;;;12.93;8.30;;;;;;;12.34;65.30;99096.81;3588749;40;20043;-65
2021/05/19 08:11:58;;;;;;;11.90;8.02;;;;;;;12.48;65.26;99095.03;3579426;40;20049;-64
2021/05/19 08:14:27;;;;;;;11.07;8.18;;;;;;;12.53;64.18;99100.59;3588569;40;20056;-65
2021/05/19 08:16:54;;;;;;;10.48;7.30;;;;;;;12.55;63.76;99103.03;3588744;40;20056;-65
2021/05/19 08:19:20;;;;;;;9.13;7.25;;;;;;;12.48;63.68;99089.72;3588646;40;20048;-65
2021/05/19 08:21:47;;;;;;;9.60;7.85;;;;;;;12.61;63.63;99088.97;3579990;40;20044;-65
2021/05/19 08:24:16;;;;;;;9.63;6.97;;;;;;;12.78;62.85;99092.94;3589881;40;20045;-64
2021/05/19 08:26:43;;;;;;;8.80;6.50;;;;;;;12.87;62.45;99085.59;3589929;40;20044;-66
2021/05/19 08:29:11;;;;;;;14.48;7.75;;;;;;;12.91;63.13;99088.66;3589827;40;20142;-64
2021/05/19 08:31:39;;;;;;;11.27;8.48;;;;;;;13.00;61.95;99090.13;3589966;40;20484;-64
2021/05/19 08:34:12;;;;;;;8.55;6.65;;;;;;;13.04;61.52;99096.66;3590262;40;20048;-65
2021/05/19 08:36:40;;;;;;;11.85;8.25;;;;;;;13.05;61.32;99093.78;3589673;40;20046;-65
2021/05/19 08:39:07;;;;;;;15.38;7.70;;;;;;;13.03;60.49;99082.56;3580105;40;20403;-65
2021/05/19 08:41:35;;;;;;;10.95;6.05;;;;;;;13.21;60.76;99084.63;3590193;40;20049;-65
2021/05/19 08:44:04;;;;;;;6.80;4.88;;;;;;;13.31;59.34;99081.63;3590080;40;20051;-64
2021/05/19 08:46:32;;;;;;;6.13;4.15;;;;;;;13.15;58.58;99080.16;3590060;40;20044;-64
2021/05/19 08:49:03;;;;;;;5.95;4.30;;;;;;;13.23;58.19;99082.63;3580006;40;20048;-64
2021/05/19 08:51:31;;;;;;;6.10;4.45;;;;;;;13.16;58.08;99079.13;3589655;40;20041;-65
2021/05/19 08:53:59;;;;;;;10.80;5.82;;;;;;;13.35;58.83;99081.00;3580221;40;20044;-65
2021/05/19 08:56:26;;;;;;;9.48;5.68;;;;;;;13.59;58.69;99078.75;3580711;40;20325;-64
2021/05/19 08:58:55;;;;;;;11.38;6.20;;;;;;;13.71;58.71;99069.13;3589483;40;20048;-65
2021/05/19 09:01:23;;;;;;;7.32;4.88;;;;;;;13.86;57.86;99068.91;3590022;40;20491;-64
2021/05/19 09:04:02;;;;;;;8.50;4.50;;;;;;;13.83;55.70;99064.00;3589612;40;20064;-63
2021/05/19 09:06:34;;;;;;;5.38;3.90;;;;;;;13.75;56.72;99056.25;3590030;40;20080;-63
2021/05/19 09:09:24;;;;;;;8.68;3.78;;;;;;;13.86;55.85;99063.59;3589538;40;20044;-64
2021/05/19 09:11:59;;;;;;;4.55;2.50;;;;;;;13.88;53.94;99067.69;3589892;40;20416;-63
2021/05/19 09:14:30;;;;;;;4.53;3.10;;;;;;;13.84;53.12;99066.47;3589678;40;20041;-63
2021/05/19 09:17:20;;;;;;;5.07;2.53;;;;;;;13.95;52.17;99065.00;3589712;40;20068;-63
2021/05/19 09:19:49;;;;;;;7.10;2.83;;;;;;;14.19;52.14;99062.69;3589655;40;20126;-63
2021/05/19 09:22:18;;;;;;;4.63;2.47;;;;;;;14.37;52.42;99063.66;3589663;40;20060;-63
2021/05/19 09:24:46;;;;;;;4.95;2.65;;;;;;;14.64;51.41;99060.09;3580271;40;20295;-63
2021/05/19 09:27:13;;;;;;;3.33;1.92;;;;;;;14.79;51.02;99055.31;3589416;40;20350;-64
2021/05/19 09:29:45;;;;;;;2.58;1.80;;;;;;;14.85;50.35;99046.47;3589672;40;20044;-63
2021/05/19 09:32:15;;;;;;;3.72;2.08;;;;;;;14.94;49.44;99050.53;3589415;40;20109;-63
2021/05/19 09:34:44;;;;;;;5.25;2.03;;;;;;;14.94;49.91;99039.03;3589995;40;20385;-64
2021/05/19 09:37:23;;;;;;;3.25;1.58;;;;;;;15.08;49.49;99030.75;3589190;40;20390;-63
2021/05/19 09:39:57;;;;;;;3.95;2.10;;;;;;;15.16;49.62;99031.53;3589463;40;20044;-64
2021/05/19 09:42:41;;;;;;;3.33;1.60;;;;;;;15.22;48.96;99034.13;3589255;40;20295;-64
2021/05/19 09:45:17;;;;;;;6.97;2.00;;;;;;;15.09;47.65;99029.72;3580144;40;20295;-64
2021/05/19 09:47:46;;;;;;;5.22;2.13;;;;;;;15.14;48.62;99023.72;3589247;40;20049;-63
2021/05/19 09:50:15;;;;;;;4.05;2.95;;;;;;;15.39;48.30;99026.44;3580357;40;20122;-64
2021/05/19 09:53:01;;;;;;;12.65;2.50;;;;;;;15.58;47.23;99017.41;3589380;40;20049;-63
2021/05/19 09:55:29;;;;;;;3.90;1.83;;;;;;;15.54;46.75;99010.09;3590335;40;20048;-63
2021/05/19 09:57:57;;;;;;;4.78;1.70;;;;;;;15.38;46.62;99018.63;3592763;40;20048;-64
2021/05/19 10:00:27;;;;;;;3.60;1.42;;;;;;;15.58;45.91;99013.94;3594173;40;20105;-62
2021/05/19 10:02:56;;;;;;;2.95;1.33;;;;;;;15.70;45.02;99006.88;3594884;40;20059;-63
2021/05/19 10:05:27;;;;;;;4.35;1.60;;;;;;;15.90;45.33;99003.19;3591323;40;20052;-63
2021/05/19 10:07:56;;;;;;;3.20;1.50;;;;;;;16.08;46.11;99009.34;3591006;40;20067;-63
2021/05/19 10:10:25;;;;;;;6.25;1.85;;;;;;;16.09;44.46;99000.31;3590696;40;20125;-64
2021/05/19 10:12:53;;;;;;;5.00;1.30;;;;;;;16.05;43.87;99006.31;3590615;40;20040;-63
2021/05/19 10:15:24;;;;;;;5.05;1.30;;;;;;;16.13;43.74;98991.88;3590629;40;20365;-63
2021/05/19 10:18:00;;;;;;;2.20;1.30;;;;;;;16.23;43.95;98992.94;3589902;40;20044;-63
2021/05/19 10:20:31;;;;;;;4.03;2.05;;;;;;;16.33;43.15;98987.09;3590425;40;20055;-63
2021/05/19 10:22:58;;;;;;;2.42;0.90;;;;;;;16.39;42.71;98991.53;3590004;40;20145;-63
2021/05/19 10:25:35;;;;;;;2.95;1.15;;;;;;;16.38;41.93;98984.56;3589816;40;20044;-63
2021/05/19 10:28:05;;;;;;;3.08;1.20;;;;;;;16.56;41.71;98978.34;3589562;40;20044;-63
2021/05/19 10:30:46;;;;;;;1.83;1.20;;;;;;;16.59;41.05;98976.06;3589569;40;20052;-63
2021/05/19 10:33:47;;;;;;;2.78;1.33;;;;;;;16.57;41.40;98975.47;3589457;40;20095;-63
2021/05/19 10:36:49;;;;;;;2.90;1.50;;;;;;;16.59;42.19;98965.38;3589177;40;20073;-64
2021/05/19 10:39:27;;;;;;;4.05;1.73;;;;;;;16.76;41.56;98960.22;3589362;40;20051;-63
2021/05/19 10:41:56;;;;;;;3.38;1.23;;;;;;;16.86;41.30;98962.34;3589313;40;20056;-63
2021/05/19 10:44:28;;;;;;;2.75;1.10;;;;;;;16.73;40.56;98957.19;3588339;40;20330;-63
2021/05/19 10:47:02;;;;;;;3.05;1.30;;;;;;;16.89;40.54;98958.38;3589348;40;20055;-63
2021/05/19 10:50:05;;;;;;;3.65;1.50;;;;;;;17.00;40.39;98952.25;3588961;40;20044;-63
2021/05/19 10:57:12;;;;;;;5.68;3.58;;;;;;;17.37;40.60;98946.72;3588978;40;20041;-64
2021/05/19 10:58:50;;;;;;;3.58;1.73;;;;;;;17.54;39.49;98937.72;3588717;40;20109;-62
2021/05/19 11:01:54;;;;;;;5.57;2.65;;;;;;;17.83;39.69;98935.97;3588845;40;20048;-63
2021/05/19 11:04:23;;;;;;;4.20;1.92;;;;;;;17.70;38.90;98938.88;3588974;40;20049;-65
2021/05/19 11:07:05;;;;;;;3.60;1.30;;;;;;;17.44;37.98;98934.84;3579402;40;20059;-63
2021/05/19 11:09:34;;;;;;;5.43;1.42;;;;;;;17.46;38.35;98931.94;3589028;40;20057;-65
2021/05/19 11:12:37;;;;;;;2.97;1.50;;;;;;;17.65;37.89;98936.09;3589266;40;20359;-64
2021/05/19 11:15:46;;;;;;;3.67;1.67;;;;;;;17.69;37.90;98926.56;3589038;40;20446;-63
2021/05/19 11:18:21;;;;;;;4.82;1.45;;;;;;;17.65;37.70;98924.59;3589092;40;20062;-63
2021/05/19 11:20:49;;;;;;;5.03;2.10;;;;;;;17.89;37.72;98926.19;3580163;40;20040;-64
2021/05/19 11:23:18;;;;;;;4.10;1.40;;;;;;;18.06;36.65;98918.25;3589536;40;20126;-64
2021/05/19 11:25:46;;;;;;;3.50;1.60;;;;;;;18.12;36.26;98914.59;3589054;40;20055;-64
2021/05/19 11:28:14;;;;;;;3.58;1.60;;;;;;;18.01;35.53;98918.97;3588213;40;20080;-63
2021/05/19 11:30:41;;;;;;;5.55;2.13;;;;;;;17.96;36.98;98907.31;3588742;40;20067;-63
2021/05/19 11:33:11;;;;;;;4.47;2.72;;;;;;;18.17;37.15;98905.88;3588429;40;20035;-64
2021/05/19 11:35:39;;;;;;;4.97;1.60;;;;;;;18.39;35.45;98906.81;3589057;40;20052;-63
2021/05/19 11:38:13;;;;;;;3.08;1.38;;;;;;;18.60;35.15;98904.47;3588693;40;20035;-63
2021/05/19 11:40:44;;;;;;;4.43;1.30;;;;;;;18.39;35.29;98903.31;3589175;40;20056;-64
2021/05/19 11:43:15;;;;;;;4.68;1.40;;;;;;;18.11;35.97;98899.59;3588644;40;20048;-63
2021/05/19 11:45:44;;;;;;;5.47;1.48;;;;;;;17.61;36.20;98910.09;3588724;40;20394;-64
2021/05/19 11:48:20;;;;;;;2.83;1.58;;;;;;;17.49;36.20;98915.44;3588456;40;20041;-64
2021/05/19 11:50:48;;;;;;;4.95;1.60;;;;;;;17.09;37.81;98924.16;3588528;40;20051;-64
2021/05/19 11:53:15;;;;;;;3.17;1.67;;;;;;;16.84;38.89;98919.84;3588557;40;20133;-64
2021/05/19 11:55:45;;;;;;;4.55;1.98;;;;;;;16.70;41.68;98925.63;3589762;40;20084;-64